createdAt,value
2022-11-13T00:00:01.707Z,64.24
2022-11-13T00:02:28.708Z,63.25
2022-11-13T00:04:55.816Z,62.62
2022-11-13T00:07:23.208Z,62.30
2022-11-13T00:09:50.422Z,63.09
2022-11-13T00:12:18.659Z,62.80
2022-11-13T00:14:45.465Z,62.58
2022-11-13T00:17:12.446Z,62.45
2022-11-13T00:19:39.498Z,62.11
2022-11-13T00:22:06.306Z,61.57
2022-11-13T00:24:35.393Z,61.77
2022-11-13T00:27:02.528Z,61.38
2022-11-13T00:29:29.346Z,62.59
2022-11-13T00:31:58.108Z,63.47
2022-11-13T00:34:46.509Z,64.32
2022-11-13T00:37:12.194Z,64.52
2022-11-13T00:39:38.958Z,63.96
2022-11-13T00:42:05.860Z,63.56
2022-11-13T00:44:33.818Z,63.40
2022-11-13T00:47:00.611Z,63.62
2022-11-13T00:49:27.638Z,62.80
2022-11-13T00:51:55.102Z,62.60
2022-11-13T00:54:22.180Z,62.91
2022-11-13T00:56:49.138Z,62.65
2022-11-13T00:59:15.918Z,62.44
2022-11-13T01:02:02.837Z,61.92
2022-11-13T01:04:30.276Z,60.79
2022-11-13T01:06:57.096Z,62.21
2022-11-13T01:09:24.432Z,61.82
2022-11-13T01:11:52.365Z,62.79
2022-11-13T01:14:20.091Z,62.83
2022-11-13T01:16:47.025Z,62.54
2022-11-13T01:19:14.112Z,62.25
2022-11-13T01:21:45.411Z,62.24
2022-11-13T01:24:13.347Z,62.52
2022-11-13T01:26:59.611Z,62.50
2022-11-13T01:29:27.616Z,62.19
2022-11-13T01:31:54.654Z,61.90
2022-11-13T01:34:21.468Z,62.03
2022-11-13T01:36:48.886Z,61.60
2022-11-13T01:39:16.102Z,61.87
2022-11-13T01:41:43.038Z,61.24
2022-11-13T01:44:19.987Z,60.33
2022-11-13T01:47:06.885Z,60.69
2022-11-13T01:49:37.156Z,60.89
2022-11-13T01:52:07.549Z,61.35
2022-11-13T01:55:03.661Z,61.20
2022-11-13T01:57:30.993Z,60.83
2022-11-13T02:00:00.959Z,61.35
2022-11-13T02:02:27.838Z,60.95
2022-11-13T02:05:03.798Z,61.01
2022-11-13T02:07:30.999Z,61.00
2022-11-13T02:10:09.152Z,61.01
2022-11-13T02:12:36.816Z,60.99
2022-11-13T02:15:25.835Z,61.34
2022-11-13T02:17:57.985Z,61.05
2022-11-13T02:20:58.325Z,61.11
2022-11-13T02:23:25.219Z,61.39
2022-11-13T02:25:53.767Z,62.83
2022-11-13T02:28:21.166Z,62.68
2022-11-13T02:30:47.947Z,62.84
2022-11-13T02:33:30.681Z,63.33
2022-11-13T02:35:57.626Z,62.93
2022-11-13T02:38:24.252Z,68.48
2022-11-13T02:40:51.122Z,66.39
2022-11-13T02:43:17.847Z,66.75
2022-11-13T02:45:44.650Z,67.21
2022-11-13T02:48:11.464Z,67.23
2022-11-13T02:50:38.902Z,66.95
2022-11-13T02:53:10.145Z,66.05
2022-11-13T02:55:37.596Z,65.86
2022-11-13T02:58:04.614Z,66.86
2022-11-13T03:00:31.594Z,66.55
2022-11-13T03:02:58.383Z,67.87
2022-11-13T03:05:29.370Z,67.61
2022-11-13T03:07:56.297Z,69.03
2022-11-13T03:10:27.450Z,70.34
2022-11-13T03:13:12.231Z,68.17
2022-11-13T03:15:40.434Z,68.32
2022-11-13T03:18:08.058Z,68.81
2022-11-13T03:20:40.829Z,68.67
2022-11-13T03:23:07.570Z,69.70
2022-11-13T03:25:36.971Z,69.06
2022-11-13T03:28:03.816Z,68.80
2022-11-13T03:30:31.290Z,69.49
2022-11-13T03:32:58.623Z,68.57
2022-11-13T03:35:41.826Z,67.79
2022-11-13T03:38:11.194Z,68.49
2022-11-13T03:40:38.394Z,69.62
2022-11-13T03:43:05.714Z,69.02
2022-11-13T03:45:33.107Z,68.45
2022-11-13T03:48:00.035Z,68.48
2022-11-13T03:50:27.352Z,68.94
2022-11-13T03:52:54.585Z,70.24
2022-11-13T03:55:21.421Z,69.73
2022-11-13T03:57:48.343Z,69.80
2022-11-13T04:00:15.483Z,69.90
2022-11-13T04:02:42.454Z,68.66
2022-11-13T04:05:09.465Z,71.55
2022-11-13T04:07:38.503Z,70.84
2022-11-13T04:10:07.456Z,69.89
2022-11-13T04:12:34.442Z,69.55
2022-11-13T04:15:01.464Z,71.23
2022-11-13T04:17:28.272Z,71.10
2022-11-13T04:19:55.107Z,70.90
2022-11-13T04:22:21.992Z,71.00
2022-11-13T04:24:48.754Z,71.20
2022-11-13T04:27:16.138Z,72.04
2022-11-13T04:29:42.974Z,71.97
2022-11-13T04:32:14.480Z,71.76
2022-11-13T04:34:41.494Z,72.22
2022-11-13T04:37:15.958Z,74.49
2022-11-13T04:39:42.795Z,74.12
2022-11-13T04:42:30.602Z,73.56
2022-11-13T04:44:57.325Z,73.53
2022-11-13T04:47:29.844Z,75.14
2022-11-13T04:49:57.774Z,73.27
2022-11-13T04:52:24.906Z,73.75
2022-11-13T04:54:52.013Z,73.69
2022-11-13T04:57:19.354Z,74.82
2022-11-13T05:00:07.207Z,73.64
2022-11-13T05:02:34.607Z,73.13
2022-11-13T05:05:04.955Z,73.64
2022-11-13T05:07:48.736Z,73.35
2022-11-13T05:10:20.441Z,73.12
2022-11-13T05:12:50.142Z,72.80
2022-11-13T05:15:17.304Z,75.10
2022-11-13T05:17:44.326Z,74.21
2022-11-13T05:20:11.946Z,73.40
2022-11-13T05:22:38.952Z,74.01
2022-11-13T05:25:06.006Z,75.09
2022-11-13T05:27:33.185Z,75.91
2022-11-13T05:30:00.047Z,75.97
2022-11-13T05:32:27.947Z,76.33
2022-11-13T05:34:54.857Z,75.02
2022-11-13T05:37:22.115Z,75.88
2022-11-13T05:39:48.958Z,76.60
2022-11-13T05:42:16.141Z,76.63
2022-11-13T05:44:42.968Z,75.12
2022-11-13T05:47:30.004Z,73.57
2022-11-13T05:50:01.646Z,74.65
2022-11-13T05:52:28.564Z,74.30
2022-11-13T05:54:55.961Z,75.65
2022-11-13T05:57:22.999Z,76.53
2022-11-13T05:59:50.228Z,75.74
2022-11-13T06:02:17.793Z,75.27
2022-11-13T06:04:45.098Z,75.31
2022-11-13T06:07:11.995Z,75.46
2022-11-13T06:09:41.318Z,76.47
2022-11-13T06:12:26.339Z,75.16
2022-11-13T06:14:57.824Z,74.16
2022-11-13T06:17:25.169Z,77.62
2022-11-13T06:19:53.388Z,76.46
2022-11-13T06:22:20.089Z,75.71
2022-11-13T06:24:48.974Z,75.66
2022-11-13T06:27:15.690Z,75.63
2022-11-13T06:30:02.588Z,76.97
2022-11-13T06:32:53.676Z,78.12
2022-11-13T06:35:20.729Z,78.42
2022-11-13T06:37:56.473Z,76.29
2022-11-13T06:40:24.825Z,75.83
2022-11-13T06:42:52.796Z,78.37
2022-11-13T06:45:19.740Z,77.31
2022-11-13T06:47:46.502Z,76.47
2022-11-13T06:50:13.337Z,77.52
2022-11-13T06:52:40.220Z,80.51
2022-11-13T06:55:07.772Z,80.34
2022-11-13T06:57:34.574Z,80.47
2022-11-13T07:00:01.239Z,81.71
2022-11-13T07:02:28.266Z,83.12
2022-11-13T07:04:57.740Z,80.07
2022-11-13T07:07:24.528Z,80.25
2022-11-13T07:09:51.320Z,79.10
2022-11-13T07:12:18.226Z,79.47
2022-11-13T07:14:45.167Z,82.36
2022-11-13T07:17:11.876Z,81.32
2022-11-13T07:19:38.746Z,83.18
2022-11-13T07:22:05.485Z,83.96
2022-11-13T07:24:32.483Z,80.56
2022-11-13T07:26:59.301Z,79.87
2022-11-13T07:29:26.125Z,78.89
2022-11-13T07:31:53.722Z,78.72
2022-11-13T07:34:20.661Z,80.30
2022-11-13T07:36:47.507Z,80.17
2022-11-13T07:39:14.442Z,80.92
2022-11-13T07:41:41.291Z,78.06
2022-11-13T07:44:09.475Z,80.31
2022-11-13T07:46:55.440Z,77.59
2022-11-13T07:49:42.366Z,79.66
2022-11-13T07:52:11.328Z,78.58
2022-11-13T07:54:38.197Z,77.53
2022-11-13T07:57:04.988Z,78.06
2022-11-13T07:59:31.645Z,78.10
2022-11-13T08:01:59.027Z,77.60
2022-11-13T08:04:25.660Z,75.04
2022-11-13T08:06:52.684Z,75.23
2022-11-13T08:09:19.585Z,75.32
2022-11-13T08:11:46.504Z,74.79
2022-11-13T08:14:13.281Z,72.38
2022-11-13T08:16:40.151Z,73.23
2022-11-13T08:19:07.019Z,73.93
2022-11-13T08:21:35.053Z,75.60
2022-11-13T08:24:01.818Z,73.85
2022-11-13T08:26:28.721Z,72.59
2022-11-13T08:28:55.395Z,73.38
2022-11-13T08:31:22.116Z,71.52
2022-11-13T08:33:48.763Z,72.09
2022-11-13T08:36:15.543Z,73.62
2022-11-13T08:38:42.449Z,71.75
2022-11-13T08:41:09.860Z,70.58
2022-11-13T08:43:36.681Z,70.83
2022-11-13T08:46:03.391Z,71.54
2022-11-13T08:48:30.615Z,70.46
2022-11-13T08:50:57.792Z,71.15
2022-11-13T08:53:25.406Z,73.66
2022-11-13T08:55:52.613Z,72.39
2022-11-13T08:58:19.694Z,72.73
2022-11-13T09:00:46.677Z,70.27
2022-11-13T09:03:13.361Z,70.57
2022-11-13T09:05:41.083Z,70.58
2022-11-13T09:08:08.007Z,72.55
2022-11-13T09:10:35.041Z,70.42
2022-11-13T09:13:04.501Z,71.67
2022-11-13T09:15:32.825Z,70.82
2022-11-13T09:18:00.595Z,69.32
2022-11-13T09:20:27.938Z,67.08
2022-11-13T09:22:59.131Z,65.93
2022-11-13T09:25:26.445Z,66.60
2022-11-13T09:27:54.782Z,66.45
2022-11-13T09:30:22.519Z,66.06
2022-11-13T09:32:52.982Z,65.97
2022-11-13T09:35:33.965Z,64.99
2022-11-13T09:38:04.180Z,63.26
2022-11-13T09:40:40.160Z,63.36
2022-11-13T09:43:11.894Z,61.76
2022-11-13T09:45:40.566Z,58.54
2022-11-13T09:48:22.576Z,57.37
2022-11-13T09:50:49.593Z,58.54
2022-11-13T09:53:16.947Z,55.55
2022-11-13T09:56:10.070Z,54.16
2022-11-13T09:58:45.733Z,54.56
2022-11-13T10:01:16.304Z,54.73
2022-11-13T10:04:05.243Z,54.03
2022-11-13T10:06:40.011Z,55.10
2022-11-13T10:09:26.282Z,53.93
2022-11-13T10:12:03.394Z,54.10
2022-11-13T10:14:30.070Z,53.79
2022-11-13T10:17:00.758Z,55.35
2022-11-13T10:19:31.589Z,56.37
2022-11-13T10:22:34.573Z,60.35
2022-11-13T10:25:09.909Z,59.00
2022-11-13T10:27:36.761Z,57.26
2022-11-13T10:30:04.472Z,55.46
2022-11-13T10:32:32.924Z,56.75
2022-11-13T10:35:06.006Z,57.31
2022-11-13T10:37:32.717Z,55.97
2022-11-13T10:39:59.528Z,54.12
2022-11-13T10:42:30.244Z,54.33
2022-11-13T10:44:58.703Z,55.60
2022-11-13T10:48:01.998Z,56.74
2022-11-13T10:50:24.033Z,55.68
2022-11-13T10:52:52.009Z,59.40
2022-11-13T10:55:21.842Z,58.86
2022-11-13T10:57:56.647Z,60.05
2022-11-13T11:00:25.424Z,60.81
2022-11-13T11:02:52.100Z,60.43
2022-11-13T11:05:20.266Z,60.15
2022-11-13T11:07:46.985Z,61.85
2022-11-13T11:10:37.063Z,61.64
2022-11-13T11:13:11.139Z,62.03
2022-11-13T11:15:56.589Z,62.30
2022-11-13T11:18:33.251Z,59.91
2022-11-13T11:21:02.755Z,59.89
2022-11-13T11:23:43.250Z,60.41
2022-11-13T11:26:15.999Z,59.75
2022-11-13T11:28:52.146Z,58.34
2022-11-13T11:31:31.065Z,59.50
2022-11-13T11:34:10.055Z,58.96
2022-11-13T11:36:45.864Z,60.13
2022-11-13T11:39:12.544Z,61.24
2022-11-13T11:41:43.457Z,59.12
2022-11-13T11:44:25.389Z,60.99
2022-11-13T11:46:52.114Z,58.82
2022-11-13T11:49:20.890Z,59.41
2022-11-13T11:51:59.829Z,59.70
2022-11-13T11:54:41.185Z,59.84
2022-11-13T11:57:18.527Z,58.85
2022-11-13T11:59:56.892Z,59.16
2022-11-13T12:02:23.523Z,57.89
2022-11-13T12:04:54.369Z,58.84
2022-11-13T12:07:31.323Z,58.20
2022-11-13T12:09:58.129Z,57.27
2022-11-13T12:12:43.538Z,56.48
2022-11-13T12:15:23.542Z,55.94
2022-11-13T12:17:59.742Z,57.13
2022-11-13T12:20:46.810Z,56.64
2022-11-13T12:23:13.518Z,55.98
2022-11-13T12:25:40.257Z,56.38
2022-11-13T12:28:07.015Z,56.24
2022-11-13T12:30:49.658Z,55.98
2022-11-13T12:33:22.555Z,55.43
2022-11-13T12:35:51.369Z,56.21
2022-11-13T12:38:37.309Z,55.80
2022-11-13T12:41:03.949Z,56.02
2022-11-13T12:43:42.919Z,56.05
2022-11-13T12:46:11.241Z,57.93
2022-11-13T12:48:42.782Z,57.92
2022-11-13T12:51:11.350Z,56.58
2022-11-13T12:53:44.990Z,56.32
2022-11-13T12:56:16.484Z,57.28
2022-11-13T12:59:09.548Z,58.01
2022-11-13T13:01:44.445Z,57.63
2022-11-13T13:04:11.492Z,58.03
2022-11-13T13:06:50.032Z,56.09
2022-11-13T13:09:32.398Z,57.44
2022-11-13T13:11:59.020Z,56.04
2022-11-13T13:14:28.811Z,55.75
2022-11-13T13:17:05.076Z,56.46
2022-11-13T13:19:33.005Z,56.71
2022-11-13T13:21:59.842Z,59.06
2022-11-13T13:24:27.493Z,58.14
2022-11-13T13:26:54.286Z,58.82
2022-11-13T13:29:26.914Z,56.35
2022-11-13T13:32:20.682Z,57.54
2022-11-13T13:35:06.320Z,58.59
2022-11-13T13:37:41.746Z,57.21
2022-11-13T13:40:17.127Z,58.39
2022-11-13T13:43:07.693Z,57.80
2022-11-13T13:45:47.945Z,57.54
2022-11-13T13:48:17.881Z,56.30
2022-11-13T13:50:47.187Z,55.77
2022-11-13T13:53:17.066Z,55.42
2022-11-13T13:55:48.830Z,56.61
2022-11-13T13:58:18.939Z,57.57
2022-11-13T14:01:17.323Z,58.48
2022-11-13T14:03:42.222Z,58.19
2022-11-13T14:06:09.845Z,59.02
2022-11-13T14:08:36.794Z,60.56
2022-11-13T14:11:27.385Z,61.78
2022-11-13T14:13:54.172Z,60.64
2022-11-13T14:16:21.020Z,61.22
2022-11-13T14:18:48.479Z,63.01
2022-11-13T14:21:17.495Z,62.68
2022-11-13T14:23:46.347Z,62.31
2022-11-13T14:26:13.616Z,62.33
2022-11-13T14:28:53.390Z,63.19
2022-11-13T14:31:25.109Z,60.85
2022-11-13T14:33:51.963Z,62.46
2022-11-13T14:36:26.042Z,62.22
2022-11-13T14:38:53.779Z,63.69
2022-11-13T14:41:20.777Z,63.21
2022-11-13T14:43:51.870Z,64.10
2022-11-13T14:46:31.115Z,63.51
2022-11-13T14:48:58.329Z,65.24
2022-11-13T14:51:26.974Z,64.16
2022-11-13T14:53:58.617Z,65.81
2022-11-13T14:56:32.436Z,64.24
2022-11-13T14:59:15.557Z,65.78
2022-11-13T15:01:56.437Z,64.78
2022-11-13T15:04:23.567Z,64.33
2022-11-13T15:06:53.738Z,64.86
2022-11-13T15:09:20.635Z,65.10
2022-11-13T15:11:47.337Z,63.41
2022-11-13T15:14:15.332Z,62.78
2022-11-13T15:16:42.890Z,63.42
2022-11-13T15:19:29.488Z,62.88
2022-11-13T15:24:43.813Z,65.97
2022-11-13T15:27:13.794Z,67.63
2022-11-13T15:29:40.489Z,70.45
2022-11-13T15:32:09.816Z,71.21
2022-11-13T15:34:36.846Z,69.81
2022-11-13T15:37:09.969Z,69.01
2022-11-13T15:39:36.837Z,71.18
2022-11-13T15:42:05.731Z,70.25
2022-11-13T15:44:32.580Z,71.67
2022-11-13T15:46:59.293Z,70.17
2022-11-13T15:49:27.859Z,73.37
2022-11-13T15:51:54.682Z,72.98
2022-11-13T15:54:33.122Z,73.85
2022-11-13T15:57:01.935Z,74.81
2022-11-13T15:59:30.538Z,74.03
2022-11-13T16:01:58.415Z,75.63
2022-11-13T16:04:30.163Z,76.26
2022-11-13T16:07:06.675Z,77.00
2022-11-13T16:09:33.481Z,74.03
2022-11-13T16:12:01.764Z,74.53
2022-11-13T16:14:30.644Z,72.35
2022-11-13T16:16:58.117Z,71.25
2022-11-13T16:19:25.891Z,69.99
2022-11-13T16:21:54.347Z,68.54
2022-11-13T16:24:24.288Z,67.43
2022-11-13T16:26:56.444Z,67.22
2022-11-13T16:29:24.239Z,66.18
2022-11-13T16:31:51.038Z,65.47
2022-11-13T16:34:17.763Z,64.83
2022-11-13T16:36:45.077Z,64.99
2022-11-13T16:39:17.450Z,66.55
2022-11-13T16:41:44.329Z,66.65
2022-11-13T16:44:11.071Z,66.19
2022-11-13T16:46:39.676Z,64.79
2022-11-13T16:49:06.711Z,63.83
2022-11-13T16:51:33.475Z,63.51
2022-11-13T16:54:00.210Z,63.08
2022-11-13T16:56:31.119Z,62.82
2022-11-13T16:58:59.252Z,62.86
2022-11-13T17:01:28.353Z,62.67
2022-11-13T17:03:55.190Z,62.91
2022-11-13T17:06:28.373Z,62.71
2022-11-13T17:09:00.738Z,62.71
2022-11-13T17:11:45.983Z,62.29
2022-11-13T17:14:15.020Z,61.88
2022-11-13T17:16:44.041Z,62.15
2022-11-13T17:19:13.539Z,61.74
2022-11-13T17:21:44.213Z,61.92
2022-11-13T17:24:11.579Z,60.46
2022-11-13T17:26:47.621Z,60.91
2022-11-13T17:29:15.776Z,61.21
2022-11-13T17:31:42.832Z,61.39
2022-11-13T17:34:09.614Z,61.45
2022-11-13T17:36:39.118Z,61.50
2022-11-13T17:39:06.989Z,61.61
2022-11-13T17:41:35.378Z,61.41
2022-11-13T17:44:02.126Z,61.15
2022-11-13T17:46:29.098Z,60.88
2022-11-13T17:48:56.093Z,60.96
2022-11-13T17:51:23.269Z,61.32
2022-11-13T17:53:50.345Z,60.94
2022-11-13T17:56:18.019Z,61.22
2022-11-13T17:58:45.544Z,60.77
2022-11-13T18:01:16.890Z,60.62
2022-11-13T18:03:44.091Z,60.31
2022-11-13T18:06:13.478Z,60.07
2022-11-13T18:08:44.562Z,59.90
2022-11-13T18:11:22.469Z,60.01
2022-11-13T18:13:50.678Z,61.02
2022-11-13T18:16:23.539Z,60.97
2022-11-13T18:18:53.856Z,60.61
2022-11-13T18:21:23.399Z,60.37
2022-11-13T18:23:57.901Z,60.80
2022-11-13T18:26:26.056Z,60.97
2022-11-13T18:28:53.070Z,61.21
2022-11-13T18:31:20.596Z,61.22
2022-11-13T18:33:47.534Z,61.55
2022-11-13T18:36:16.054Z,61.06
2022-11-13T18:38:44.258Z,60.68
2022-11-13T18:41:16.121Z,60.21
2022-11-13T18:43:45.116Z,60.35
2022-11-13T18:46:15.177Z,60.28
2022-11-13T18:48:49.370Z,60.07
2022-11-13T18:51:17.931Z,59.79
2022-11-13T18:54:09.599Z,59.88
2022-11-13T18:56:37.869Z,60.26
2022-11-13T18:59:05.879Z,60.35
2022-11-13T19:01:36.303Z,60.71
2022-11-13T19:06:52.840Z,60.59
2022-11-13T19:09:20.242Z,60.29
2022-11-13T19:11:48.586Z,59.89
2022-11-13T19:14:16.300Z,60.05
2022-11-13T19:16:44.762Z,61.73
2022-11-13T19:19:16.810Z,62.09
2022-11-13T19:22:00.033Z,62.04
2022-11-13T19:24:27.284Z,67.75
2022-11-13T19:26:54.467Z,65.60
2022-11-13T19:29:21.309Z,65.02
2022-11-13T19:31:55.092Z,65.72
2022-11-13T19:34:21.936Z,65.19
2022-11-13T19:36:53.322Z,64.53
2022-11-13T19:39:21.880Z,66.04
2022-11-13T19:41:48.866Z,64.83
2022-11-13T19:44:18.029Z,64.21
2022-11-13T19:46:52.866Z,63.70
2022-11-13T19:49:23.414Z,63.51
2022-11-13T19:51:50.933Z,63.26
2022-11-13T19:54:18.196Z,63.69
2022-11-13T19:56:45.467Z,64.12
2022-11-13T19:59:12.822Z,64.77
2022-11-13T20:01:43.879Z,66.05
2022-11-13T20:04:34.148Z,65.75
2022-11-13T20:07:02.135Z,64.51
2022-11-13T20:09:29.456Z,63.63
2022-11-13T20:11:56.402Z,64.14
2022-11-13T20:14:23.186Z,63.87
2022-11-13T20:16:50.842Z,63.72
2022-11-13T20:19:18.217Z,63.41
2022-11-13T20:21:45.441Z,63.98
2022-11-13T20:24:14.244Z,64.64
2022-11-13T20:26:41.059Z,63.40
2022-11-13T20:29:08.274Z,63.25
2022-11-13T20:31:35.569Z,64.18
2022-11-13T20:34:02.604Z,63.61
2022-11-13T20:36:29.353Z,62.86
2022-11-13T20:38:57.121Z,63.15
2022-11-13T20:41:25.148Z,63.67
2022-11-13T20:43:55.033Z,63.28
2022-11-13T20:46:22.111Z,63.54
2022-11-13T20:48:49.323Z,63.51
2022-11-13T20:51:23.606Z,63.64
2022-11-13T20:53:51.896Z,64.27
2022-11-13T20:56:20.358Z,64.50
2022-11-13T20:58:47.433Z,65.11
2022-11-13T21:01:15.713Z,65.49
2022-11-13T21:03:43.302Z,65.83
2022-11-13T21:06:14.708Z,66.18
2022-11-13T21:08:41.495Z,64.55
2022-11-13T21:11:08.671Z,64.72
2022-11-13T21:13:35.403Z,64.60
2022-11-13T21:16:06.143Z,64.48
2022-11-13T21:18:43.294Z,64.19
2022-11-13T21:21:12.677Z,63.98
2022-11-13T21:23:39.542Z,64.79
2022-11-13T21:26:07.171Z,64.25
2022-11-13T21:28:34.689Z,64.97
2022-11-13T21:31:05.547Z,63.29
2022-11-13T21:33:39.051Z,64.00
2022-11-13T21:36:13.342Z,65.87
2022-11-13T21:38:40.563Z,66.17
2022-11-13T21:41:23.293Z,64.36
2022-11-13T21:43:56.795Z,64.48
2022-11-13T21:46:24.479Z,64.37
2022-11-13T21:48:55.868Z,65.29
2022-11-13T21:51:22.747Z,64.49
2022-11-13T21:53:50.177Z,63.51
2022-11-13T21:56:17.301Z,63.57
2022-11-13T21:58:44.515Z,63.98
2022-11-13T22:01:12.410Z,63.41
2022-11-13T22:03:39.761Z,62.88
2022-11-13T22:06:18.297Z,62.96
2022-11-13T22:08:45.733Z,63.68
2022-11-13T22:11:12.557Z,65.53
2022-11-13T22:13:40.371Z,64.84
2022-11-13T22:16:08.054Z,65.27
2022-11-13T22:18:37.078Z,64.79
2022-11-13T22:21:08.470Z,64.10
2022-11-13T22:23:35.608Z,65.35
2022-11-13T22:26:06.632Z,64.44
2022-11-13T22:28:34.282Z,65.70
2022-11-13T22:31:01.501Z,66.67
2022-11-13T22:33:31.336Z,65.57
2022-11-13T22:36:08.699Z,64.55
2022-11-13T22:38:35.681Z,63.73
2022-11-13T22:41:06.514Z,64.04
2022-11-13T22:43:37.211Z,63.71
2022-11-13T22:46:07.789Z,63.90
2022-11-13T22:48:35.134Z,63.86
2022-11-13T22:51:15.379Z,64.59
2022-11-13T22:53:43.733Z,65.75
2022-11-13T22:56:12.277Z,65.59
2022-11-13T22:58:39.157Z,65.58
2022-11-13T23:01:06.835Z,64.87
2022-11-13T23:03:36.673Z,64.57
2022-11-13T23:06:03.453Z,63.99
2022-11-13T23:08:31.379Z,63.80
2022-11-13T23:10:58.610Z,63.43
2022-11-13T23:13:25.459Z,62.83
2022-11-13T23:15:52.320Z,62.21
2022-11-13T23:18:19.068Z,62.30
2022-11-13T23:20:47.581Z,63.85
2022-11-13T23:23:15.254Z,63.30
2022-11-13T23:25:42.030Z,64.65
2022-11-13T23:28:08.650Z,65.74
2022-11-13T23:30:35.367Z,64.76
2022-11-13T23:33:02.040Z,63.98
2022-11-13T23:35:28.658Z,63.95
2022-11-13T23:37:55.393Z,64.02
2022-11-13T23:40:22.198Z,64.20
2022-11-13T23:42:55.586Z,63.71
2022-11-13T23:45:22.657Z,63.00
2022-11-13T23:47:49.334Z,66.44
2022-11-13T23:50:16.311Z,64.45
2022-11-13T23:52:43.197Z,64.43
2022-11-13T23:55:09.980Z,64.73
2022-11-13T23:57:36.622Z,65.62
